Pittsfield, NH (03263)

5:39 AM EDT on May 03, 2015 (GMT -0400)
Barnstead | | Change Station
CLOSE
Current Station
Personal Weather Station
Location: Barnstead, NH
Elevation: 886 ft
Nearby Weather Stations

Elev 886 ft 43.30 °N, 71.22 °W | Updated 8 minutes ago

Partly Cloudy
Partly Cloudy
42.1 °F
Feels Like 42 °F
N
0.0
Wind Variable Wind from NE

Today
High -- | Low -- °F
--% Chance of Precip.
Yesterday
High -- | Low -- °F
Precip. -- in
5:36 AM 7:49 PM
Waxing Gibbous, 99% visible
Pressure 30.01 in
Visibility 10.0 miles
Clouds Mostly Cloudy 10000 ft
Windchill 42 °F
Dew Point 39 °F
Humidity 88%
Rainfall 0.00 in
Snow Depth Not available.
UV 0 out of 12
Pollen 10.30 out of 12
Air Quality Not available.
Flu Activity Regional
METAR KCON 030851Z AUTO 14003KT 10SM BKN100 03/02 A3000 RMK AO2 SLP160 T00330022 53005

More Conditions Fewer Conditions

Pressure 30.01 in
Visibility 10.0 miles
Clouds Mostly Cloudy 10000 ft
Windchill 42 °F
Dew Point 39 °F
Humidity 88%
Rainfall 0.00 in
Snow Depth Not available.
UV 0 out of 12
Pollen 10.30 out of 12
Air Quality Not available.
Flu Activity Regional
METAR KCON 030851Z AUTO 14003KT 10SM BKN100 03/02 A3000 RMK AO2 SLP160 T00330022 53005

More Conditions Fewer Conditions

Nepal has a long way to go to dig out and rebuild from a devastating earthquake. We have teamed up with several charities and organizations to make contributing to the relief effort as easy as possible.
How you can help: Portlight Strategies | Red Cross

10-Day Weather Forecast

Almanac

Astronomy

May. 03, 2015 Rise Set
Actual Time
Civil Twilight
Nautical Twilight
Astronomical Twilight
Moon
Length of Visible Light
Length of Day
Tomorrow will be .
, % of the Moon is Illuminated

Today's Extremes

State Highs State Lows

Community

WunderPhotos

Upload Photos

1,818,183 photos uploaded!

WunderBlogs® & News

Nearby

Air Quality

  Air Quality AQ Index Pollutant
Not available.

Snow Depth

Station Depth Elevation

Earthquake Activity

City Distance Mag. Time & Date
Minimum magnitude displayed is 2.5.

Coastal Water Temperatures

Place Temperature

Stations

Nearby Weather Stations

Station Location Temp. Windchill Dew Point Humidity Wind Precip. Elev Updated Type